sensor_id;sensor_type;location;lat;lon;timestamp;P1;durP1;ratioP1;P2;durP2;ratioP2
22705;SDS011;11520;51.198;4.468;2023-07-31T00:00:10;15.05;;;4.60;;
22705;SDS011;11520;51.198;4.468;2023-07-31T00:02:37;24.38;;;5.45;;
22705;SDS011;11520;51.198;4.468;2023-07-31T00:05:03;15.75;;;4.65;;
22705;SDS011;11520;51.198;4.468;2023-07-31T00:07:28;10.85;;;4.55;;
22705;SDS011;11520;51.198;4.468;2023-07-31T00:09:54;15.30;;;5.40;;
22705;SDS011;11520;51.198;4.468;2023-07-31T00:12:21;14.93;;;4.82;;
22705;SDS011;11520;51.198;4.468;2023-07-31T00:14:47;17.23;;;5.07;;
22705;SDS011;11520;51.198;4.468;2023-07-31T00:17:12;17.40;;;4.97;;
22705;SDS011;11520;51.198;4.468;2023-07-31T00:19:38;22.48;;;5.18;;
22705;SDS011;11520;51.198;4.468;2023-07-31T00:22:04;11.13;;;4.30;;
22705;SDS011;11520;51.198;4.468;2023-07-31T00:24:29;15.27;;;4.90;;
22705;SDS011;11520;51.198;4.468;2023-07-31T00:26:55;14.23;;;4.85;;
22705;SDS011;11520;51.198;4.468;2023-07-31T00:29:21;21.48;;;5.43;;
22705;SDS011;11520;51.198;4.468;2023-07-31T00:31:46;15.02;;;4.50;;
22705;SDS011;11520;51.198;4.468;2023-07-31T00:34:12;14.13;;;5.68;;
22705;SDS011;11520;51.198;4.468;2023-07-31T00:36:39;12.88;;;4.95;;
22705;SDS011;11520;51.198;4.468;2023-07-31T00:39:04;17.80;;;5.65;;
22705;SDS011;11520;51.198;4.468;2023-07-31T00:41:30;20.27;;;5.63;;
22705;SDS011;11520;51.198;4.468;2023-07-31T00:43:56;13.98;;;5.20;;
22705;SDS011;11520;51.198;4.468;2023-07-31T00:46:21;15.25;;;5.70;;
22705;SDS011;11520;51.198;4.468;2023-07-31T00:48:47;14.60;;;4.93;;
22705;SDS011;11520;51.198;4.468;2023-07-31T00:51:13;13.63;;;4.78;;
22705;SDS011;11520;51.198;4.468;2023-07-31T00:53:40;20.70;;;5.85;;
22705;SDS011;11520;51.198;4.468;2023-07-31T00:56:06;15.13;;;5.15;;
22705;SDS011;11520;51.198;4.468;2023-07-31T00:58:33;17.15;;;5.25;;
22705;SDS011;11520;51.198;4.468;2023-07-31T01:00:59;26.60;;;5.55;;
22705;SDS011;11520;51.198;4.468;2023-07-31T01:03:25;15.52;;;5.22;;
22705;SDS011;11520;51.198;4.468;2023-07-31T01:08:57;14.02;;;5.22;;
22705;SDS011;11520;51.198;4.468;2023-07-31T01:11:45;15.98;;;6.03;;
22705;SDS011;11520;51.198;4.468;2023-07-31T01:14:16;12.40;;;5.03;;
22705;SDS011;11520;51.198;4.468;2023-07-31T01:16:41;17.10;;;5.72;;
22705;SDS011;11520;51.198;4.468;2023-07-31T01:19:07;17.08;;;6.03;;
22705;SDS011;11520;51.198;4.468;2023-07-31T01:24:08;15.50;;;5.25;;
22705;SDS011;11520;51.198;4.468;2023-07-31T01:27:06;17.88;;;5.95;;
22705;SDS011;11520;51.198;4.468;2023-07-31T01:29:45;21.85;;;6.82;;
22705;SDS011;11520;51.198;4.468;2023-07-31T01:32:14;17.90;;;5.45;;
22705;SDS011;11520;51.198;4.468;2023-07-31T01:34:41;14.00;;;5.07;;
22705;SDS011;11520;51.198;4.468;2023-07-31T01:37:08;15.32;;;5.10;;
22705;SDS011;11520;51.198;4.468;2023-07-31T01:39:34;14.73;;;5.53;;
22705;SDS011;11520;51.198;4.468;2023-07-31T01:41:59;14.82;;;5.05;;
22705;SDS011;11520;51.198;4.468;2023-07-31T01:44:25;15.18;;;5.85;;
22705;SDS011;11520;51.198;4.468;2023-07-31T01:46:50;21.17;;;5.53;;
22705;SDS011;11520;51.198;4.468;2023-07-31T01:49:16;15.13;;;5.70;;
22705;SDS011;11520;51.198;4.468;2023-07-31T01:51:42;16.38;;;5.60;;
22705;SDS011;11520;51.198;4.468;2023-07-31T01:54:07;12.90;;;5.22;;
22705;SDS011;11520;51.198;4.468;2023-07-31T01:56:33;11.43;;;4.63;;
22705;SDS011;11520;51.198;4.468;2023-07-31T01:58:58;13.18;;;4.65;;
22705;SDS011;11520;51.198;4.468;2023-07-31T02:01:24;23.83;;;5.50;;
22705;SDS011;11520;51.198;4.468;2023-07-31T02:03:49;15.57;;;5.18;;
22705;SDS011;11520;51.198;4.468;2023-07-31T02:06:15;15.02;;;5.43;;
22705;SDS011;11520;51.198;4.468;2023-07-31T02:08:40;13.23;;;5.20;;
22705;SDS011;11520;51.198;4.468;2023-07-31T02:11:06;19.27;;;5.57;;
22705;SDS011;11520;51.198;4.468;2023-07-31T02:13:32;14.48;;;4.55;;
22705;SDS011;11520;51.198;4.468;2023-07-31T02:15:57;17.20;;;4.80;;
22705;SDS011;11520;51.198;4.468;2023-07-31T02:18:23;10.82;;;4.60;;
22705;SDS011;11520;51.198;4.468;2023-07-31T02:20:49;16.92;;;5.63;;
22705;SDS011;11520;51.198;4.468;2023-07-31T02:23:16;16.77;;;4.60;;
22705;SDS011;11520;51.198;4.468;2023-07-31T02:25:42;18.27;;;5.40;;
22705;SDS011;11520;51.198;4.468;2023-07-31T02:28:15;24.95;;;6.05;;
22705;SDS011;11520;51.198;4.468;2023-07-31T02:30:43;14.25;;;4.97;;
22705;SDS011;11520;51.198;4.468;2023-07-31T02:33:10;16.90;;;4.43;;
22705;SDS011;11520;51.198;4.468;2023-07-31T02:35:36;18.13;;;5.50;;
22705;SDS011;11520;51.198;4.468;2023-07-31T02:38:02;13.50;;;4.85;;
22705;SDS011;11520;51.198;4.468;2023-07-31T02:40:27;17.08;;;5.07;;
22705;SDS011;11520;51.198;4.468;2023-07-31T02:42:53;13.40;;;4.93;;
22705;SDS011;11520;51.198;4.468;2023-07-31T02:45:18;18.60;;;5.20;;
22705;SDS011;11520;51.198;4.468;2023-07-31T02:47:44;14.57;;;4.70;;
22705;SDS011;11520;51.198;4.468;2023-07-31T02:50:10;20.63;;;4.85;;
22705;SDS011;11520;51.198;4.468;2023-07-31T02:52:35;11.63;;;4.47;;
22705;SDS011;11520;51.198;4.468;2023-07-31T02:55:01;15.80;;;4.68;;
22705;SDS011;11520;51.198;4.468;2023-07-31T02:57:26;20.13;;;5.07;;
22705;SDS011;11520;51.198;4.468;2023-07-31T02:59:52;19.65;;;4.97;;
22705;SDS011;11520;51.198;4.468;2023-07-31T03:02:18;14.98;;;5.53;;
22705;SDS011;11520;51.198;4.468;2023-07-31T03:04:43;14.07;;;4.72;;
22705;SDS011;11520;51.198;4.468;2023-07-31T03:07:09;13.07;;;4.43;;
22705;SDS011;11520;51.198;4.468;2023-07-31T03:09:35;14.90;;;4.88;;
22705;SDS011;11520;51.198;4.468;2023-07-31T03:12:00;11.13;;;4.35;;
22705;SDS011;11520;51.198;4.468;2023-07-31T03:14:26;17.30;;;4.95;;
22705;SDS011;11520;51.198;4.468;2023-07-31T03:16:51;12.07;;;4.40;;
22705;SDS011;11520;51.198;4.468;2023-07-31T03:19:18;14.60;;;4.50;;
22705;SDS011;11520;51.198;4.468;2023-07-31T03:21:44;14.82;;;4.47;;
22705;SDS011;11520;51.198;4.468;2023-07-31T03:24:10;12.02;;;3.92;;
22705;SDS011;11520;51.198;4.468;2023-07-31T03:26:37;11.82;;;4.43;;
22705;SDS011;11520;51.198;4.468;2023-07-31T03:29:06;14.50;;;4.95;;
22705;SDS011;11520;51.198;4.468;2023-07-31T03:31:32;12.02;;;4.03;;
22705;SDS011;11520;51.198;4.468;2023-07-31T03:33:57;11.68;;;4.63;;
22705;SDS011;11520;51.198;4.468;2023-07-31T03:36:23;13.45;;;4.55;;
22705;SDS011;11520;51.198;4.468;2023-07-31T03:38:48;20.40;;;4.72;;
22705;SDS011;11520;51.198;4.468;2023-07-31T03:41:16;13.05;;;4.28;;
22705;SDS011;11520;51.198;4.468;2023-07-31T03:43:41;10.93;;;4.60;;
22705;SDS011;11520;51.198;4.468;2023-07-31T03:46:07;15.32;;;5.10;;
22705;SDS011;11520;51.198;4.468;2023-07-31T03:48:33;12.60;;;4.43;;
22705;SDS011;11520;51.198;4.468;2023-07-31T03:50:58;8.63;;;3.88;;
22705;SDS011;11520;51.198;4.468;2023-07-31T03:53:24;11.40;;;4.18;;
22705;SDS011;11520;51.198;4.468;2023-07-31T03:55:49;14.00;;;5.15;;
22705;SDS011;11520;51.198;4.468;2023-07-31T03:58:15;12.52;;;4.20;;
22705;SDS011;11520;51.198;4.468;2023-07-31T04:00:40;17.67;;;5.22;;
22705;SDS011;11520;51.198;4.468;2023-07-31T04:03:06;15.23;;;5.20;;
22705;SDS011;11520;51.198;4.468;2023-07-31T04:05:32;11.20;;;5.10;;
22705;SDS011;11520;51.198;4.468;2023-07-31T04:07:58;14.25;;;4.80;;
22705;SDS011;11520;51.198;4.468;2023-07-31T04:10:23;16.02;;;5.15;;
22705;SDS011;11520;51.198;4.468;2023-07-31T04:12:49;13.35;;;5.50;;
22705;SDS011;11520;51.198;4.468;2023-07-31T04:15:15;13.95;;;5.53;;
22705;SDS011;11520;51.198;4.468;2023-07-31T04:17:40;10.50;;;4.80;;
22705;SDS011;11520;51.198;4.468;2023-07-31T04:20:06;11.13;;;5.80;;
22705;SDS011;11520;51.198;4.468;2023-07-31T04:22:32;13.40;;;4.93;;
22705;SDS011;11520;51.198;4.468;2023-07-31T04:24:58;14.85;;;4.97;;
22705;SDS011;11520;51.198;4.468;2023-07-31T04:27:24;10.63;;;4.93;;
22705;SDS011;11520;51.198;4.468;2023-07-31T04:29:50;10.35;;;5.03;;
22705;SDS011;11520;51.198;4.468;2023-07-31T04:32:16;11.88;;;4.80;;
22705;SDS011;11520;51.198;4.468;2023-07-31T04:34:41;12.00;;;5.05;;
22705;SDS011;11520;51.198;4.468;2023-07-31T04:37:07;12.18;;;5.47;;
22705;SDS011;11520;51.198;4.468;2023-07-31T04:39:33;13.10;;;4.75;;
22705;SDS011;11520;51.198;4.468;2023-07-31T04:41:59;11.75;;;4.82;;
22705;SDS011;11520;51.198;4.468;2023-07-31T04:44:24;13.20;;;4.65;;
22705;SDS011;11520;51.198;4.468;2023-07-31T04:46:50;11.95;;;5.20;;
22705;SDS011;11520;51.198;4.468;2023-07-31T04:49:17;11.35;;;5.43;;
22705;SDS011;11520;51.198;4.468;2023-07-31T04:51:44;10.63;;;4.85;;
22705;SDS011;11520;51.198;4.468;2023-07-31T04:54:09;8.48;;;4.22;;
22705;SDS011;11520;51.198;4.468;2023-07-31T04:56:37;10.18;;;4.40;;
22705;SDS011;11520;51.198;4.468;2023-07-31T04:59:03;8.82;;;4.97;;
22705;SDS011;11520;51.198;4.468;2023-07-31T05:01:30;10.20;;;5.05;;
22705;SDS011;11520;51.198;4.468;2023-07-31T05:03:55;5.60;;;3.70;;
22705;SDS011;11520;51.198;4.468;2023-07-31T05:06:22;8.75;;;3.97;;
22705;SDS011;11520;51.198;4.468;2023-07-31T05:08:48;7.30;;;4.00;;
22705;SDS011;11520;51.198;4.468;2023-07-31T05:11:13;6.28;;;3.88;;
22705;SDS011;11520;51.198;4.468;2023-07-31T05:13:39;8.75;;;3.97;;
22705;SDS011;11520;51.198;4.468;2023-07-31T05:16:05;9.30;;;4.28;;
22705;SDS011;11520;51.198;4.468;2023-07-31T05:18:30;8.98;;;4.20;;
22705;SDS011;11520;51.198;4.468;2023-07-31T05:20:56;6.50;;;3.65;;
22705;SDS011;11520;51.198;4.468;2023-07-31T05:23:21;7.32;;;4.38;;
22705;SDS011;11520;51.198;4.468;2023-07-31T05:25:47;7.90;;;4.45;;
22705;SDS011;11520;51.198;4.468;2023-07-31T05:28:13;10.18;;;4.80;;
22705;SDS011;11520;51.198;4.468;2023-07-31T05:30:39;8.40;;;4.65;;
22705;SDS011;11520;51.198;4.468;2023-07-31T05:33:04;11.80;;;4.68;;
22705;SDS011;11520;51.198;4.468;2023-07-31T05:35:30;8.35;;;4.57;;
22705;SDS011;11520;51.198;4.468;2023-07-31T05:37:56;9.15;;;5.18;;
22705;SDS011;11520;51.198;4.468;2023-07-31T05:40:21;10.95;;;4.55;;
22705;SDS011;11520;51.198;4.468;2023-07-31T05:42:47;8.07;;;4.53;;
22705;SDS011;11520;51.198;4.468;2023-07-31T05:45:12;5.53;;;4.35;;
22705;SDS011;11520;51.198;4.468;2023-07-31T05:47:38;6.20;;;3.88;;
22705;SDS011;11520;51.198;4.468;2023-07-31T05:50:04;8.90;;;4.35;;
22705;SDS011;11520;51.198;4.468;2023-07-31T05:52:31;6.63;;;4.25;;
22705;SDS011;11520;51.198;4.468;2023-07-31T05:54:57;7.88;;;5.00;;
22705;SDS011;11520;51.198;4.468;2023-07-31T05:57:23;7.95;;;4.05;;
22705;SDS011;11520;51.198;4.468;2023-07-31T05:59:48;8.88;;;4.38;;
22705;SDS011;11520;51.198;4.468;2023-07-31T06:02:14;6.78;;;4.63;;
22705;SDS011;11520;51.198;4.468;2023-07-31T06:04:40;11.00;;;4.50;;
22705;SDS011;11520;51.198;4.468;2023-07-31T06:07:05;8.13;;;3.95;;
22705;SDS011;11520;51.198;4.468;2023-07-31T06:09:31;6.30;;;4.18;;
22705;SDS011;11520;51.198;4.468;2023-07-31T06:11:57;9.18;;;4.15;;
22705;SDS011;11520;51.198;4.468;2023-07-31T06:14:22;8.77;;;4.82;;
22705;SDS011;11520;51.198;4.468;2023-07-31T06:16:48;10.23;;;4.75;;
22705;SDS011;11520;51.198;4.468;2023-07-31T06:19:13;6.10;;;4.20;;
22705;SDS011;11520;51.198;4.468;2023-07-31T06:21:39;8.10;;;4.95;;
22705;SDS011;11520;51.198;4.468;2023-07-31T06:24:07;8.25;;;4.47;;
22705;SDS011;11520;51.198;4.468;2023-07-31T06:26:32;8.82;;;4.70;;
22705;SDS011;11520;51.198;4.468;2023-07-31T06:28:58;6.60;;;4.32;;
22705;SDS011;11520;51.198;4.468;2023-07-31T06:31:24;11.07;;;4.47;;
22705;SDS011;11520;51.198;4.468;2023-07-31T06:33:50;9.30;;;4.20;;
22705;SDS011;11520;51.198;4.468;2023-07-31T06:36:16;9.60;;;4.47;;
22705;SDS011;11520;51.198;4.468;2023-07-31T06:38:42;7.63;;;4.32;;
22705;SDS011;11520;51.198;4.468;2023-07-31T06:41:07;10.32;;;4.50;;
22705;SDS011;11520;51.198;4.468;2023-07-31T06:43:33;7.55;;;3.78;;
22705;SDS011;11520;51.198;4.468;2023-07-31T06:46:04;9.85;;;4.35;;
22705;SDS011;11520;51.198;4.468;2023-07-31T06:48:33;6.97;;;4.25;;
22705;SDS011;11520;51.198;4.468;2023-07-31T06:50:59;9.23;;;4.20;;
22705;SDS011;11520;51.198;4.468;2023-07-31T06:53:25;8.00;;;3.75;;
22705;SDS011;11520;51.198;4.468;2023-07-31T06:55:51;5.43;;;3.83;;
22705;SDS011;11520;51.198;4.468;2023-07-31T06:58:17;7.82;;;3.72;;
22705;SDS011;11520;51.198;4.468;2023-07-31T07:00:43;10.05;;;4.15;;
22705;SDS011;11520;51.198;4.468;2023-07-31T07:03:08;5.70;;;3.97;;
22705;SDS011;11520;51.198;4.468;2023-07-31T07:05:34;7.97;;;3.90;;
22705;SDS011;11520;51.198;4.468;2023-07-31T07:08:00;8.77;;;4.45;;
22705;SDS011;11520;51.198;4.468;2023-07-31T07:10:26;16.67;;;5.03;;
22705;SDS011;11520;51.198;4.468;2023-07-31T07:12:52;7.28;;;3.75;;
22705;SDS011;11520;51.198;4.468;2023-07-31T07:15:18;6.00;;;3.90;;
22705;SDS011;11520;51.198;4.468;2023-07-31T07:17:43;7.32;;;4.35;;
22705;SDS011;11520;51.198;4.468;2023-07-31T07:20:09;11.10;;;4.03;;
22705;SDS011;11520;51.198;4.468;2023-07-31T07:22:35;8.43;;;3.90;;
22705;SDS011;11520;51.198;4.468;2023-07-31T07:25:00;10.80;;;4.32;;
22705;SDS011;11520;51.198;4.468;2023-07-31T07:27:26;9.77;;;3.85;;
22705;SDS011;11520;51.198;4.468;2023-07-31T07:29:52;6.18;;;3.67;;
22705;SDS011;11520;51.198;4.468;2023-07-31T07:32:18;9.07;;;4.47;;
22705;SDS011;11520;51.198;4.468;2023-07-31T07:34:44;7.35;;;3.95;;
22705;SDS011;11520;51.198;4.468;2023-07-31T07:37:09;8.82;;;4.65;;
22705;SDS011;11520;51.198;4.468;2023-07-31T07:39:35;7.20;;;3.60;;
22705;SDS011;11520;51.198;4.468;2023-07-31T07:42:01;8.75;;;3.70;;
22705;SDS011;11520;51.198;4.468;2023-07-31T07:44:26;9.90;;;3.70;;
22705;SDS011;11520;51.198;4.468;2023-07-31T07:46:52;7.95;;;4.35;;
22705;SDS011;11520;51.198;4.468;2023-07-31T07:49:17;10.52;;;4.38;;
22705;SDS011;11520;51.198;4.468;2023-07-31T07:51:43;8.05;;;3.97;;
22705;SDS011;11520;51.198;4.468;2023-07-31T07:54:09;7.78;;;3.35;;
22705;SDS011;11520;51.198;4.468;2023-07-31T07:56:34;7.80;;;4.65;;
22705;SDS011;11520;51.198;4.468;2023-07-31T07:59:01;8.63;;;3.85;;
22705;SDS011;11520;51.198;4.468;2023-07-31T08:01:27;7.32;;;3.72;;
22705;SDS011;11520;51.198;4.468;2023-07-31T08:03:52;7.40;;;3.58;;
22705;SDS011;11520;51.198;4.468;2023-07-31T08:06:18;7.40;;;3.95;;
22705;SDS011;11520;51.198;4.468;2023-07-31T08:08:44;10.30;;;3.25;;
22705;SDS011;11520;51.198;4.468;2023-07-31T08:11:10;5.25;;;3.35;;
22705;SDS011;11520;51.198;4.468;2023-07-31T08:13:35;5.53;;;2.80;;
22705;SDS011;11520;51.198;4.468;2023-07-31T08:16:04;10.23;;;3.03;;
22705;SDS011;11520;51.198;4.468;2023-07-31T08:18:30;6.47;;;3.17;;
22705;SDS011;11520;51.198;4.468;2023-07-31T08:21:01;7.28;;;3.20;;
22705;SDS011;11520;51.198;4.468;2023-07-31T08:23:27;5.38;;;2.90;;
22705;SDS011;11520;51.198;4.468;2023-07-31T08:25:53;8.20;;;3.63;;
22705;SDS011;11520;51.198;4.468;2023-07-31T08:28:19;5.15;;;2.75;;
22705;SDS011;11520;51.198;4.468;2023-07-31T08:30:44;7.00;;;3.33;;
22705;SDS011;11520;51.198;4.468;2023-07-31T08:33:10;8.98;;;3.17;;
22705;SDS011;11520;51.198;4.468;2023-07-31T08:35:36;6.68;;;3.17;;
22705;SDS011;11520;51.198;4.468;2023-07-31T08:38:02;6.57;;;3.03;;
22705;SDS011;11520;51.198;4.468;2023-07-31T08:40:28;6.32;;;2.95;;
22705;SDS011;11520;51.198;4.468;2023-07-31T08:42:55;7.88;;;2.95;;
22705;SDS011;11520;51.198;4.468;2023-07-31T08:45:27;6.90;;;3.33;;
22705;SDS011;11520;51.198;4.468;2023-07-31T08:47:53;6.00;;;3.22;;
22705;SDS011;11520;51.198;4.468;2023-07-31T08:50:23;7.18;;;3.22;;
22705;SDS011;11520;51.198;4.468;2023-07-31T08:52:49;6.07;;;2.78;;
22705;SDS011;11520;51.198;4.468;2023-07-31T08:55:16;6.50;;;2.70;;
22705;SDS011;11520;51.198;4.468;2023-07-31T08:57:42;6.28;;;2.58;;
22705;SDS011;11520;51.198;4.468;2023-07-31T09:00:08;6.93;;;2.60;;
22705;SDS011;11520;51.198;4.468;2023-07-31T09:02:45;4.60;;;2.47;;
22705;SDS011;11520;51.198;4.468;2023-07-31T09:05:16;4.95;;;2.80;;
22705;SDS011;11520;51.198;4.468;2023-07-31T09:07:43;4.53;;;2.65;;
22705;SDS011;11520;51.198;4.468;2023-07-31T09:10:12;11.60;;;2.80;;
22705;SDS011;11520;51.198;4.468;2023-07-31T09:12:37;7.63;;;2.60;;
22705;SDS011;11520;51.198;4.468;2023-07-31T09:15:04;5.10;;;2.65;;
22705;SDS011;11520;51.198;4.468;2023-07-31T09:17:34;5.20;;;1.92;;
22705;SDS011;11520;51.198;4.468;2023-07-31T09:22:38;5.05;;;2.47;;
22705;SDS011;11520;51.198;4.468;2023-07-31T09:25:21;6.03;;;2.35;;
22705;SDS011;11520;51.198;4.468;2023-07-31T09:27:53;3.95;;;2.40;;
22705;SDS011;11520;51.198;4.468;2023-07-31T09:30:29;5.47;;;2.28;;
22705;SDS011;11520;51.198;4.468;2023-07-31T09:33:03;8.77;;;2.47;;
22705;SDS011;11520;51.198;4.468;2023-07-31T09:35:32;4.95;;;2.10;;
22705;SDS011;11520;51.198;4.468;2023-07-31T09:38:06;5.03;;;2.10;;
22705;SDS011;11520;51.198;4.468;2023-07-31T09:40:34;7.90;;;2.00;;
22705;SDS011;11520;51.198;4.468;2023-07-31T09:43:02;4.15;;;1.77;;
22705;SDS011;11520;51.198;4.468;2023-07-31T09:45:41;3.70;;;2.40;;
22705;SDS011;11520;51.198;4.468;2023-07-31T09:48:12;4.20;;;2.28;;
22705;SDS011;11520;51.198;4.468;2023-07-31T09:50:41;5.20;;;2.60;;
22705;SDS011;11520;51.198;4.468;2023-07-31T09:53:08;4.05;;;2.15;;
22705;SDS011;11520;51.198;4.468;2023-07-31T09:55:35;5.35;;;2.28;;
22705;SDS011;11520;51.198;4.468;2023-07-31T09:58:03;5.78;;;2.58;;
22705;SDS011;11520;51.198;4.468;2023-07-31T10:00:33;8.60;;;2.97;;
22705;SDS011;11520;51.198;4.468;2023-07-31T10:02:59;5.00;;;3.13;;
22705;SDS011;11520;51.198;4.468;2023-07-31T10:05:34;6.78;;;3.00;;
22705;SDS011;11520;51.198;4.468;2023-07-31T10:08:00;7.65;;;3.05;;
22705;SDS011;11520;51.198;4.468;2023-07-31T10:10:26;5.80;;;2.70;;
22705;SDS011;11520;51.198;4.468;2023-07-31T10:12:54;5.40;;;3.10;;
22705;SDS011;11520;51.198;4.468;2023-07-31T10:15:22;5.75;;;3.28;;
22705;SDS011;11520;51.198;4.468;2023-07-31T10:17:50;7.95;;;3.28;;
22705;SDS011;11520;51.198;4.468;2023-07-31T10:20:16;9.75;;;3.15;;
22705;SDS011;11520;51.198;4.468;2023-07-31T10:22:43;6.05;;;3.08;;
22705;SDS011;11520;51.198;4.468;2023-07-31T10:25:11;6.85;;;2.90;;
22705;SDS011;11520;51.198;4.468;2023-07-31T10:27:38;5.93;;;3.30;;
22705;SDS011;11520;51.198;4.468;2023-07-31T10:30:05;7.32;;;2.67;;
22705;SDS011;11520;51.198;4.468;2023-07-31T10:32:33;5.07;;;2.70;;
22705;SDS011;11520;51.198;4.468;2023-07-31T10:35:00;5.47;;;2.72;;
22705;SDS011;11520;51.198;4.468;2023-07-31T10:37:29;6.00;;;2.47;;
22705;SDS011;11520;51.198;4.468;2023-07-31T10:40:05;6.13;;;2.33;;
22705;SDS011;11520;51.198;4.468;2023-07-31T10:42:38;4.45;;;2.40;;
22705;SDS011;11520;51.198;4.468;2023-07-31T10:45:13;5.00;;;2.63;;
22705;SDS011;11520;51.198;4.468;2023-07-31T10:47:43;6.82;;;2.75;;
22705;SDS011;11520;51.198;4.468;2023-07-31T10:50:17;3.78;;;2.38;;
22705;SDS011;11520;51.198;4.468;2023-07-31T10:52:51;5.88;;;2.50;;
22705;SDS011;11520;51.198;4.468;2023-07-31T10:57:57;6.00;;;2.60;;
22705;SDS011;11520;51.198;4.468;2023-07-31T11:00:40;5.18;;;2.88;;
22705;SDS011;11520;51.198;4.468;2023-07-31T11:03:08;8.43;;;3.75;;
22705;SDS011;11520;51.198;4.468;2023-07-31T11:05:47;8.27;;;3.75;;
22705;SDS011;11520;51.198;4.468;2023-07-31T11:10:49;6.80;;;3.58;;
22705;SDS011;11520;51.198;4.468;2023-07-31T11:13:51;7.47;;;3.60;;
22705;SDS011;11520;51.198;4.468;2023-07-31T11:18:45;12.05;;;4.05;;
22705;SDS011;11520;51.198;4.468;2023-07-31T11:21:20;6.85;;;3.88;;
22705;SDS011;11520;51.198;4.468;2023-07-31T11:23:51;8.80;;;4.25;;
22705;SDS011;11520;51.198;4.468;2023-07-31T11:26:18;6.45;;;3.72;;
22705;SDS011;11520;51.198;4.468;2023-07-31T11:28:47;5.82;;;3.70;;
22705;SDS011;11520;51.198;4.468;2023-07-31T11:31:14;6.95;;;4.40;;
22705;SDS011;11520;51.198;4.468;2023-07-31T11:33:39;9.20;;;4.05;;
22705;SDS011;11520;51.198;4.468;2023-07-31T11:36:17;8.82;;;4.28;;
22705;SDS011;11520;51.198;4.468;2023-07-31T11:38:44;11.07;;;4.45;;
22705;SDS011;11520;51.198;4.468;2023-07-31T11:41:10;6.22;;;3.65;;
22705;SDS011;11520;51.198;4.468;2023-07-31T11:43:38;9.52;;;4.88;;
22705;SDS011;11520;51.198;4.468;2023-07-31T11:46:04;8.25;;;4.10;;
22705;SDS011;11520;51.198;4.468;2023-07-31T11:48:32;7.85;;;4.05;;
22705;SDS011;11520;51.198;4.468;2023-07-31T11:51:01;6.05;;;3.78;;
22705;SDS011;11520;51.198;4.468;2023-07-31T11:56:05;8.70;;;4.15;;
22705;SDS011;11520;51.198;4.468;2023-07-31T11:58:33;6.90;;;4.00;;
22705;SDS011;11520;51.198;4.468;2023-07-31T12:00:59;8.48;;;4.10;;
22705;SDS011;11520;51.198;4.468;2023-07-31T12:03:26;11.65;;;4.95;;
22705;SDS011;11520;51.198;4.468;2023-07-31T12:05:55;9.48;;;4.68;;
22705;SDS011;11520;51.198;4.468;2023-07-31T12:08:21;8.13;;;4.57;;
22705;SDS011;11520;51.198;4.468;2023-07-31T12:10:52;8.32;;;4.55;;
22705;SDS011;11520;51.198;4.468;2023-07-31T12:13:21;10.50;;;4.63;;
22705;SDS011;11520;51.198;4.468;2023-07-31T12:15:55;7.68;;;4.45;;
22705;SDS011;11520;51.198;4.468;2023-07-31T12:18:22;7.57;;;3.88;;
22705;SDS011;11520;51.198;4.468;2023-07-31T12:20:59;6.72;;;4.05;;
22705;SDS011;11520;51.198;4.468;2023-07-31T12:23:27;7.63;;;4.05;;
22705;SDS011;11520;51.198;4.468;2023-07-31T12:26:08;9.07;;;4.40;;
22705;SDS011;11520;51.198;4.468;2023-07-31T12:28:36;5.95;;;3.75;;
22705;SDS011;11520;51.198;4.468;2023-07-31T12:31:07;9.07;;;4.35;;
22705;SDS011;11520;51.198;4.468;2023-07-31T12:33:42;7.95;;;3.88;;
22705;SDS011;11520;51.198;4.468;2023-07-31T12:36:09;9.45;;;4.05;;
22705;SDS011;11520;51.198;4.468;2023-07-31T12:38:36;10.07;;;4.75;;
22705;SDS011;11520;51.198;4.468;2023-07-31T12:41:02;6.90;;;3.85;;
22705;SDS011;11520;51.198;4.468;2023-07-31T12:43:28;7.15;;;3.72;;
22705;SDS011;11520;51.198;4.468;2023-07-31T12:45:54;7.72;;;3.58;;
22705;SDS011;11520;51.198;4.468;2023-07-31T12:48:21;11.20;;;4.70;;
22705;SDS011;11520;51.198;4.468;2023-07-31T12:50:47;7.07;;;4.50;;
22705;SDS011;11520;51.198;4.468;2023-07-31T12:53:15;9.05;;;4.35;;
22705;SDS011;11520;51.198;4.468;2023-07-31T12:55:40;8.75;;;3.85;;
22705;SDS011;11520;51.198;4.468;2023-07-31T12:58:06;7.65;;;3.97;;
22705;SDS011;11520;51.198;4.468;2023-07-31T13:00:32;6.93;;;3.63;;
22705;SDS011;11520;51.198;4.468;2023-07-31T13:02:58;8.18;;;4.00;;
22705;SDS011;11520;51.198;4.468;2023-07-31T13:05:25;9.82;;;4.20;;
22705;SDS011;11520;51.198;4.468;2023-07-31T13:07:51;8.50;;;3.90;;
22705;SDS011;11520;51.198;4.468;2023-07-31T13:10:17;7.60;;;3.78;;
22705;SDS011;11520;51.198;4.468;2023-07-31T13:12:42;7.70;;;4.22;;
22705;SDS011;11520;51.198;4.468;2023-07-31T13:15:08;9.80;;;3.70;;
22705;SDS011;11520;51.198;4.468;2023-07-31T13:17:34;14.27;;;4.53;;
22705;SDS011;11520;51.198;4.468;2023-07-31T13:20:00;11.88;;;5.63;;
22705;SDS011;11520;51.198;4.468;2023-07-31T13:22:27;9.43;;;4.10;;
22705;SDS011;11520;51.198;4.468;2023-07-31T13:24:54;5.28;;;3.50;;
22705;SDS011;11520;51.198;4.468;2023-07-31T13:27:20;9.80;;;4.40;;
22705;SDS011;11520;51.198;4.468;2023-07-31T13:29:50;4.00;;;3.40;;
22705;SDS011;11520;51.198;4.468;2023-07-31T13:32:17;8.32;;;4.07;;
22705;SDS011;11520;51.198;4.468;2023-07-31T13:34:44;7.70;;;4.00;;
22705;SDS011;11520;51.198;4.468;2023-07-31T13:37:12;8.48;;;3.83;;
22705;SDS011;11520;51.198;4.468;2023-07-31T13:39:39;7.32;;;4.00;;
22705;SDS011;11520;51.198;4.468;2023-07-31T13:42:06;11.38;;;4.45;;
22705;SDS011;11520;51.198;4.468;2023-07-31T13:44:36;7.40;;;4.30;;
22705;SDS011;11520;51.198;4.468;2023-07-31T13:47:04;7.30;;;3.53;;
22705;SDS011;11520;51.198;4.468;2023-07-31T13:49:29;6.40;;;3.58;;
22705;SDS011;11520;51.198;4.468;2023-07-31T13:51:55;7.97;;;3.20;;
22705;SDS011;11520;51.198;4.468;2023-07-31T13:54:22;6.40;;;2.97;;
22705;SDS011;11520;51.198;4.468;2023-07-31T13:56:49;9.25;;;3.72;;
22705;SDS011;11520;51.198;4.468;2023-07-31T13:59:15;4.95;;;3.05;;
22705;SDS011;11520;51.198;4.468;2023-07-31T14:01:47;4.70;;;2.03;;
22705;SDS011;11520;51.198;4.468;2023-07-31T14:04:13;5.85;;;2.50;;
22705;SDS011;11520;51.198;4.468;2023-07-31T14:06:38;4.75;;;2.00;;
22705;SDS011;11520;51.198;4.468;2023-07-31T14:09:04;6.45;;;2.50;;
22705;SDS011;11520;51.198;4.468;2023-07-31T14:11:30;7.20;;;2.38;;
22705;SDS011;11520;51.198;4.468;2023-07-31T14:13:59;2.97;;;1.80;;
22705;SDS011;11520;51.198;4.468;2023-07-31T14:16:27;3.70;;;1.70;;
22705;SDS011;11520;51.198;4.468;2023-07-31T14:18:53;3.35;;;1.40;;
22705;SDS011;11520;51.198;4.468;2023-07-31T14:21:19;3.95;;;1.45;;
22705;SDS011;11520;51.198;4.468;2023-07-31T14:23:45;18.05;;;1.70;;
22705;SDS011;11520;51.198;4.468;2023-07-31T14:26:10;2.08;;;1.50;;
22705;SDS011;11520;51.198;4.468;2023-07-31T14:28:36;2.17;;;1.50;;
22705;SDS011;11520;51.198;4.468;2023-07-31T14:31:02;1.80;;;1.05;;
22705;SDS011;11520;51.198;4.468;2023-07-31T14:33:28;4.18;;;1.80;;
22705;SDS011;11520;51.198;4.468;2023-07-31T14:35:53;3.92;;;1.50;;
22705;SDS011;11520;51.198;4.468;2023-07-31T14:38:19;3.05;;;1.60;;
22705;SDS011;11520;51.198;4.468;2023-07-31T14:40:45;3.63;;;2.08;;
22705;SDS011;11520;51.198;4.468;2023-07-31T14:43:11;2.88;;;1.80;;
22705;SDS011;11520;51.198;4.468;2023-07-31T14:45:36;3.13;;;1.73;;
22705;SDS011;11520;51.198;4.468;2023-07-31T14:48:02;3.38;;;1.85;;
22705;SDS011;11520;51.198;4.468;2023-07-31T14:50:28;2.63;;;1.88;;
22705;SDS011;11520;51.198;4.468;2023-07-31T14:52:53;2.50;;;1.80;;
22705;SDS011;11520;51.198;4.468;2023-07-31T14:55:19;6.35;;;2.40;;
22705;SDS011;11520;51.198;4.468;2023-07-31T14:57:45;3.60;;;2.08;;
22705;SDS011;11520;51.198;4.468;2023-07-31T15:00:11;4.53;;;2.20;;